sensor_id;sensor_type;location;lat;lon;timestamp;P1;durP1;ratioP1;P2;durP2;ratioP2
68680;SDS011;55836;49.858;6.756;2024-01-06T00:02:00;3.10;;;1.60;;
68680;SDS011;55836;49.858;6.756;2024-01-06T00:04:27;4.27;;;2.40;;
68680;SDS011;55836;49.858;6.756;2024-01-06T00:06:53;2.80;;;1.47;;
68680;SDS011;55836;49.858;6.756;2024-01-06T00:09:19;5.20;;;1.90;;
68680;SDS011;55836;49.858;6.756;2024-01-06T00:11:45;1.93;;;1.50;;
68680;SDS011;55836;49.858;6.756;2024-01-06T00:14:11;1.70;;;1.20;;
68680;SDS011;55836;49.858;6.756;2024-01-06T00:16:37;3.13;;;2.00;;
68680;SDS011;55836;49.858;6.756;2024-01-06T00:19:03;2.70;;;2.10;;
68680;SDS011;55836;49.858;6.756;2024-01-06T00:21:29;3.43;;;1.97;;
68680;SDS011;55836;49.858;6.756;2024-01-06T00:23:55;2.93;;;1.80;;
68680;SDS011;55836;49.858;6.756;2024-01-06T00:26:21;2.23;;;1.80;;
68680;SDS011;55836;49.858;6.756;2024-01-06T00:28:48;4.53;;;1.90;;
68680;SDS011;55836;49.858;6.756;2024-01-06T00:31:14;2.00;;;1.50;;
68680;SDS011;55836;49.858;6.756;2024-01-06T00:33:42;2.20;;;1.77;;
68680;SDS011;55836;49.858;6.756;2024-01-06T00:36:08;5.60;;;2.10;;
68680;SDS011;55836;49.858;6.756;2024-01-06T00:38:34;4.23;;;2.20;;
68680;SDS011;55836;49.858;6.756;2024-01-06T00:41:00;2.27;;;1.70;;
68680;SDS011;55836;49.858;6.756;2024-01-06T00:43:26;4.93;;;2.20;;
68680;SDS011;55836;49.858;6.756;2024-01-06T00:45:52;2.27;;;1.73;;
68680;SDS011;55836;49.858;6.756;2024-01-06T00:48:18;2.73;;;2.17;;
68680;SDS011;55836;49.858;6.756;2024-01-06T00:50:44;5.63;;;2.33;;
68680;SDS011;55836;49.858;6.756;2024-01-06T00:53:11;5.63;;;2.37;;
68680;SDS011;55836;49.858;6.756;2024-01-06T00:55:37;3.17;;;2.00;;
68680;SDS011;55836;49.858;6.756;2024-01-06T00:58:03;2.97;;;2.30;;
68680;SDS011;55836;49.858;6.756;2024-01-06T01:00:29;3.17;;;1.93;;
68680;SDS011;55836;49.858;6.756;2024-01-06T01:02:55;4.30;;;2.30;;
68680;SDS011;55836;49.858;6.756;2024-01-06T01:05:22;3.57;;;2.13;;
68680;SDS011;55836;49.858;6.756;2024-01-06T01:07:47;3.77;;;2.43;;
68680;SDS011;55836;49.858;6.756;2024-01-06T01:10:13;5.40;;;2.73;;
68680;SDS011;55836;49.858;6.756;2024-01-06T01:12:39;3.27;;;2.10;;
68680;SDS011;55836;49.858;6.756;2024-01-06T01:15:05;2.10;;;1.90;;
68680;SDS011;55836;49.858;6.756;2024-01-06T01:17:32;3.53;;;3.00;;
68680;SDS011;55836;49.858;6.756;2024-01-06T01:19:58;2.07;;;1.93;;
68680;SDS011;55836;49.858;6.756;2024-01-06T01:22:26;2.27;;;2.03;;
68680;SDS011;55836;49.858;6.756;2024-01-06T01:24:52;3.77;;;2.33;;
68680;SDS011;55836;49.858;6.756;2024-01-06T01:27:18;4.13;;;3.00;;
68680;SDS011;55836;49.858;6.756;2024-01-06T01:29:44;4.60;;;2.20;;
68680;SDS011;55836;49.858;6.756;2024-01-06T01:32:10;2.70;;;2.13;;
68680;SDS011;55836;49.858;6.756;2024-01-06T01:34:36;6.10;;;2.30;;
68680;SDS011;55836;49.858;6.756;2024-01-06T01:37:02;3.17;;;2.53;;
68680;SDS011;55836;49.858;6.756;2024-01-06T01:39:28;5.53;;;2.80;;
68680;SDS011;55836;49.858;6.756;2024-01-06T01:41:54;2.90;;;2.30;;
68680;SDS011;55836;49.858;6.756;2024-01-06T01:44:21;5.00;;;2.70;;
68680;SDS011;55836;49.858;6.756;2024-01-06T01:46:47;2.60;;;2.13;;
68680;SDS011;55836;49.858;6.756;2024-01-06T01:49:13;4.27;;;2.60;;
68680;SDS011;55836;49.858;6.756;2024-01-06T01:51:39;2.83;;;2.20;;
68680;SDS011;55836;49.858;6.756;2024-01-06T01:54:05;3.00;;;2.20;;
68680;SDS011;55836;49.858;6.756;2024-01-06T01:56:32;3.00;;;2.23;;
68680;SDS011;55836;49.858;6.756;2024-01-06T01:59:01;4.17;;;2.70;;
68680;SDS011;55836;49.858;6.756;2024-01-06T02:01:29;3.03;;;2.57;;
68680;SDS011;55836;49.858;6.756;2024-01-06T02:03:55;3.50;;;3.10;;
68680;SDS011;55836;49.858;6.756;2024-01-06T02:06:21;8.20;;;3.10;;
68680;SDS011;55836;49.858;6.756;2024-01-06T02:08:47;4.30;;;2.63;;
68680;SDS011;55836;49.858;6.756;2024-01-06T02:11:13;2.63;;;2.40;;
68680;SDS011;55836;49.858;6.756;2024-01-06T02:13:39;4.40;;;2.80;;
68680;SDS011;55836;49.858;6.756;2024-01-06T02:16:05;2.90;;;2.33;;
68680;SDS011;55836;49.858;6.756;2024-01-06T02:18:32;5.23;;;2.57;;
68680;SDS011;55836;49.858;6.756;2024-01-06T02:20:59;4.70;;;2.60;;
68680;SDS011;55836;49.858;6.756;2024-01-06T02:23:25;3.77;;;2.60;;
68680;SDS011;55836;49.858;6.756;2024-01-06T02:25:51;4.03;;;3.50;;
68680;SDS011;55836;49.858;6.756;2024-01-06T02:28:17;5.03;;;2.40;;
68680;SDS011;55836;49.858;6.756;2024-01-06T02:30:43;4.50;;;2.70;;
68680;SDS011;55836;49.858;6.756;2024-01-06T02:33:09;7.03;;;2.63;;
68680;SDS011;55836;49.858;6.756;2024-01-06T02:35:35;5.23;;;3.30;;
68680;SDS011;55836;49.858;6.756;2024-01-06T02:38:02;6.67;;;3.33;;
68680;SDS011;55836;49.858;6.756;2024-01-06T02:40:28;3.27;;;2.80;;
68680;SDS011;55836;49.858;6.756;2024-01-06T02:42:54;3.47;;;2.80;;
68680;SDS011;55836;49.858;6.756;2024-01-06T02:45:20;4.87;;;3.40;;
68680;SDS011;55836;49.858;6.756;2024-01-06T02:47:46;3.93;;;3.37;;
68680;SDS011;55836;49.858;6.756;2024-01-06T02:50:12;4.13;;;3.17;;
68680;SDS011;55836;49.858;6.756;2024-01-06T02:52:38;4.53;;;3.20;;
68680;SDS011;55836;49.858;6.756;2024-01-06T02:55:04;4.80;;;2.90;;
68680;SDS011;55836;49.858;6.756;2024-01-06T02:57:30;4.60;;;3.30;;
68680;SDS011;55836;49.858;6.756;2024-01-06T02:59:56;5.07;;;3.30;;
68680;SDS011;55836;49.858;6.756;2024-01-06T03:02:22;3.10;;;2.80;;
68680;SDS011;55836;49.858;6.756;2024-01-06T03:04:48;7.40;;;3.30;;
68680;SDS011;55836;49.858;6.756;2024-01-06T03:07:15;5.23;;;3.20;;
68680;SDS011;55836;49.858;6.756;2024-01-06T03:09:41;3.10;;;2.80;;
68680;SDS011;55836;49.858;6.756;2024-01-06T03:12:07;4.20;;;3.07;;
68680;SDS011;55836;49.858;6.756;2024-01-06T03:14:34;5.33;;;3.10;;
68680;SDS011;55836;49.858;6.756;2024-01-06T03:17:00;3.33;;;2.87;;
68680;SDS011;55836;49.858;6.756;2024-01-06T03:19:26;3.87;;;3.43;;
68680;SDS011;55836;49.858;6.756;2024-01-06T03:21:52;5.27;;;2.67;;
68680;SDS011;55836;49.858;6.756;2024-01-06T03:24:18;5.63;;;3.33;;
68680;SDS011;55836;49.858;6.756;2024-01-06T03:26:44;5.00;;;3.63;;
68680;SDS011;55836;49.858;6.756;2024-01-06T03:29:10;5.10;;;2.93;;
68680;SDS011;55836;49.858;6.756;2024-01-06T03:31:36;4.27;;;2.80;;
68680;SDS011;55836;49.858;6.756;2024-01-06T03:34:02;5.03;;;2.80;;
68680;SDS011;55836;49.858;6.756;2024-01-06T03:36:28;2.67;;;2.20;;
68680;SDS011;55836;49.858;6.756;2024-01-06T03:38:54;4.40;;;3.20;;
68680;SDS011;55836;49.858;6.756;2024-01-06T03:41:20;5.13;;;3.10;;
68680;SDS011;55836;49.858;6.756;2024-01-06T03:43:46;3.47;;;3.17;;
68680;SDS011;55836;49.858;6.756;2024-01-06T03:46:12;2.90;;;2.60;;
68680;SDS011;55836;49.858;6.756;2024-01-06T03:48:38;4.27;;;3.20;;
68680;SDS011;55836;49.858;6.756;2024-01-06T03:51:04;2.67;;;2.47;;
68680;SDS011;55836;49.858;6.756;2024-01-06T03:53:30;6.47;;;3.57;;
68680;SDS011;55836;49.858;6.756;2024-01-06T03:55:56;3.53;;;2.60;;
68680;SDS011;55836;49.858;6.756;2024-01-06T03:58:22;3.23;;;2.93;;
68680;SDS011;55836;49.858;6.756;2024-01-06T04:00:48;2.60;;;2.40;;
68680;SDS011;55836;49.858;6.756;2024-01-06T04:03:14;4.73;;;3.07;;
68680;SDS011;55836;49.858;6.756;2024-01-06T04:05:40;3.30;;;2.97;;
68680;SDS011;55836;49.858;6.756;2024-01-06T04:08:06;3.17;;;2.70;;
68680;SDS011;55836;49.858;6.756;2024-01-06T04:10:33;3.60;;;2.93;;
68680;SDS011;55836;49.858;6.756;2024-01-06T04:12:59;3.93;;;2.70;;
68680;SDS011;55836;49.858;6.756;2024-01-06T04:15:25;3.77;;;2.87;;
68680;SDS011;55836;49.858;6.756;2024-01-06T04:17:51;5.13;;;2.80;;
68680;SDS011;55836;49.858;6.756;2024-01-06T04:20:17;3.20;;;2.67;;
68680;SDS011;55836;49.858;6.756;2024-01-06T04:22:43;3.07;;;2.40;;
68680;SDS011;55836;49.858;6.756;2024-01-06T04:25:09;3.57;;;2.10;;
68680;SDS011;55836;49.858;6.756;2024-01-06T04:27:35;2.53;;;2.33;;
68680;SDS011;55836;49.858;6.756;2024-01-06T04:30:01;3.63;;;2.67;;
68680;SDS011;55836;49.858;6.756;2024-01-06T04:32:27;3.27;;;2.83;;
68680;SDS011;55836;49.858;6.756;2024-01-06T04:34:53;5.70;;;3.13;;
68680;SDS011;55836;49.858;6.756;2024-01-06T04:37:21;3.20;;;2.60;;
68680;SDS011;55836;49.858;6.756;2024-01-06T04:39:47;2.87;;;2.47;;
68680;SDS011;55836;49.858;6.756;2024-01-06T04:42:13;3.07;;;2.70;;
68680;SDS011;55836;49.858;6.756;2024-01-06T04:44:39;5.10;;;2.77;;
68680;SDS011;55836;49.858;6.756;2024-01-06T04:47:05;4.47;;;2.70;;
68680;SDS011;55836;49.858;6.756;2024-01-06T04:49:31;3.60;;;2.43;;
68680;SDS011;55836;49.858;6.756;2024-01-06T04:51:57;2.90;;;2.40;;
68680;SDS011;55836;49.858;6.756;2024-01-06T04:54:23;3.23;;;2.50;;
68680;SDS011;55836;49.858;6.756;2024-01-06T04:56:49;7.60;;;2.47;;
68680;SDS011;55836;49.858;6.756;2024-01-06T04:59:15;3.50;;;2.67;;
68680;SDS011;55836;49.858;6.756;2024-01-06T05:01:41;5.93;;;2.30;;
68680;SDS011;55836;49.858;6.756;2024-01-06T05:04:07;2.60;;;2.40;;
68680;SDS011;55836;49.858;6.756;2024-01-06T05:06:34;4.30;;;2.70;;
68680;SDS011;55836;49.858;6.756;2024-01-06T05:09:00;3.43;;;2.53;;
68680;SDS011;55836;49.858;6.756;2024-01-06T05:11:26;3.20;;;2.50;;
68680;SDS011;55836;49.858;6.756;2024-01-06T05:13:51;2.50;;;2.13;;
68680;SDS011;55836;49.858;6.756;2024-01-06T05:16:17;2.47;;;2.23;;
68680;SDS011;55836;49.858;6.756;2024-01-06T05:18:43;2.93;;;2.30;;
68680;SDS011;55836;49.858;6.756;2024-01-06T05:21:09;2.23;;;2.03;;
68680;SDS011;55836;49.858;6.756;2024-01-06T05:23:35;2.57;;;2.10;;
68680;SDS011;55836;49.858;6.756;2024-01-06T05:26:01;6.80;;;3.07;;
68680;SDS011;55836;49.858;6.756;2024-01-06T05:28:27;4.67;;;2.13;;
68680;SDS011;55836;49.858;6.756;2024-01-06T05:30:53;2.67;;;2.37;;
68680;SDS011;55836;49.858;6.756;2024-01-06T05:33:22;2.20;;;1.87;;
68680;SDS011;55836;49.858;6.756;2024-01-06T05:35:48;4.00;;;2.10;;
68680;SDS011;55836;49.858;6.756;2024-01-06T05:38:14;3.00;;;2.70;;
68680;SDS011;55836;49.858;6.756;2024-01-06T05:40:42;2.47;;;2.03;;
68680;SDS011;55836;49.858;6.756;2024-01-06T05:43:08;4.27;;;2.13;;
68680;SDS011;55836;49.858;6.756;2024-01-06T05:45:34;2.67;;;2.30;;
68680;SDS011;55836;49.858;6.756;2024-01-06T05:48:00;3.33;;;2.10;;
68680;SDS011;55836;49.858;6.756;2024-01-06T05:50:26;2.20;;;2.00;;
68680;SDS011;55836;49.858;6.756;2024-01-06T05:52:52;2.70;;;1.93;;
68680;SDS011;55836;49.858;6.756;2024-01-06T05:55:18;2.70;;;1.90;;
68680;SDS011;55836;49.858;6.756;2024-01-06T05:57:44;2.53;;;2.20;;
68680;SDS011;55836;49.858;6.756;2024-01-06T06:00:10;2.10;;;1.90;;
68680;SDS011;55836;49.858;6.756;2024-01-06T06:02:36;1.73;;;1.53;;
68680;SDS011;55836;49.858;6.756;2024-01-06T06:05:04;1.83;;;1.73;;
68680;SDS011;55836;49.858;6.756;2024-01-06T06:07:30;2.83;;;2.03;;
68680;SDS011;55836;49.858;6.756;2024-01-06T06:09:56;2.60;;;1.90;;
68680;SDS011;55836;49.858;6.756;2024-01-06T06:12:22;2.60;;;1.93;;
68680;SDS011;55836;49.858;6.756;2024-01-06T06:14:48;1.63;;;1.53;;
68680;SDS011;55836;49.858;6.756;2024-01-06T06:17:14;2.80;;;1.80;;
68680;SDS011;55836;49.858;6.756;2024-01-06T06:19:40;1.50;;;1.40;;
68680;SDS011;55836;49.858;6.756;2024-01-06T06:22:08;1.73;;;1.60;;
68680;SDS011;55836;49.858;6.756;2024-01-06T06:24:34;1.77;;;1.63;;
68680;SDS011;55836;49.858;6.756;2024-01-06T06:27:00;2.00;;;1.80;;
68680;SDS011;55836;49.858;6.756;2024-01-06T06:29:26;1.60;;;1.50;;
68680;SDS011;55836;49.858;6.756;2024-01-06T06:31:53;2.30;;;1.73;;
68680;SDS011;55836;49.858;6.756;2024-01-06T06:34:19;2.00;;;1.80;;
68680;SDS011;55836;49.858;6.756;2024-01-06T06:36:45;3.27;;;1.53;;
68680;SDS011;55836;49.858;6.756;2024-01-06T06:39:11;3.10;;;1.53;;
68680;SDS011;55836;49.858;6.756;2024-01-06T06:41:37;1.70;;;1.60;;
68680;SDS011;55836;49.858;6.756;2024-01-06T06:44:03;1.77;;;1.50;;
68680;SDS011;55836;49.858;6.756;2024-01-06T06:46:29;3.73;;;1.60;;
68680;SDS011;55836;49.858;6.756;2024-01-06T06:48:56;2.27;;;1.43;;
68680;SDS011;55836;49.858;6.756;2024-01-06T06:51:22;1.43;;;1.33;;
68680;SDS011;55836;49.858;6.756;2024-01-06T06:53:51;1.47;;;1.37;;
68680;SDS011;55836;49.858;6.756;2024-01-06T06:56:17;1.77;;;1.40;;
68680;SDS011;55836;49.858;6.756;2024-01-06T06:58:43;1.50;;;1.40;;
68680;SDS011;55836;49.858;6.756;2024-01-06T07:01:09;1.80;;;1.70;;
68680;SDS011;55836;49.858;6.756;2024-01-06T07:03:35;1.50;;;1.27;;
68680;SDS011;55836;49.858;6.756;2024-01-06T07:06:01;3.47;;;2.13;;
68680;SDS011;55836;49.858;6.756;2024-01-06T07:08:27;2.23;;;1.60;;
68680;SDS011;55836;49.858;6.756;2024-01-06T07:10:53;2.00;;;1.80;;
68680;SDS011;55836;49.858;6.756;2024-01-06T07:13:19;2.90;;;2.20;;
68680;SDS011;55836;49.858;6.756;2024-01-06T07:15:45;3.07;;;2.60;;
68680;SDS011;55836;49.858;6.756;2024-01-06T07:18:11;2.20;;;2.00;;
68680;SDS011;55836;49.858;6.756;2024-01-06T07:20:37;3.83;;;2.40;;
68680;SDS011;55836;49.858;6.756;2024-01-06T07:23:03;4.57;;;2.70;;
68680;SDS011;55836;49.858;6.756;2024-01-06T07:25:29;7.67;;;3.80;;
68680;SDS011;55836;49.858;6.756;2024-01-06T07:27:55;4.07;;;3.30;;
68680;SDS011;55836;49.858;6.756;2024-01-06T07:30:21;6.50;;;3.20;;
68680;SDS011;55836;49.858;6.756;2024-01-06T07:32:47;6.47;;;3.50;;
68680;SDS011;55836;49.858;6.756;2024-01-06T07:35:14;5.10;;;3.20;;
68680;SDS011;55836;49.858;6.756;2024-01-06T07:37:41;3.07;;;2.57;;
68680;SDS011;55836;49.858;6.756;2024-01-06T07:40:07;2.60;;;2.10;;
68680;SDS011;55836;49.858;6.756;2024-01-06T07:42:33;3.40;;;2.90;;
68680;SDS011;55836;49.858;6.756;2024-01-06T07:44:59;4.13;;;2.03;;
68680;SDS011;55836;49.858;6.756;2024-01-06T07:47:25;2.37;;;2.00;;
68680;SDS011;55836;49.858;6.756;2024-01-06T07:49:51;2.43;;;1.50;;
68680;SDS011;55836;49.858;6.756;2024-01-06T07:52:18;1.63;;;1.53;;
68680;SDS011;55836;49.858;6.756;2024-01-06T07:54:44;1.70;;;1.60;;
68680;SDS011;55836;49.858;6.756;2024-01-06T07:57:10;1.87;;;1.57;;
68680;SDS011;55836;49.858;6.756;2024-01-06T07:59:36;2.70;;;1.70;;
68680;SDS011;55836;49.858;6.756;2024-01-06T08:02:02;2.40;;;1.80;;
68680;SDS011;55836;49.858;6.756;2024-01-06T08:04:28;1.73;;;1.43;;
68680;SDS011;55836;49.858;6.756;2024-01-06T08:06:54;2.33;;;1.70;;
68680;SDS011;55836;49.858;6.756;2024-01-06T08:09:20;2.33;;;1.70;;
68680;SDS011;55836;49.858;6.756;2024-01-06T08:11:48;1.80;;;1.70;;
68680;SDS011;55836;49.858;6.756;2024-01-06T08:14:14;1.57;;;1.47;;
68680;SDS011;55836;49.858;6.756;2024-01-06T08:16:42;1.40;;;1.30;;
68680;SDS011;55836;49.858;6.756;2024-01-06T08:19:08;2.83;;;2.50;;
68680;SDS011;55836;49.858;6.756;2024-01-06T08:21:34;3.33;;;2.70;;
68680;SDS011;55836;49.858;6.756;2024-01-06T08:24:00;4.20;;;2.83;;
68680;SDS011;55836;49.858;6.756;2024-01-06T08:26:27;2.77;;;2.57;;
68680;SDS011;55836;49.858;6.756;2024-01-06T08:28:53;2.87;;;2.53;;
68680;SDS011;55836;49.858;6.756;2024-01-06T08:31:19;3.10;;;2.73;;
68680;SDS011;55836;49.858;6.756;2024-01-06T08:33:45;3.20;;;2.90;;
68680;SDS011;55836;49.858;6.756;2024-01-06T08:36:11;2.43;;;2.20;;
68680;SDS011;55836;49.858;6.756;2024-01-06T08:38:37;3.53;;;2.53;;
68680;SDS011;55836;49.858;6.756;2024-01-06T08:41:03;3.33;;;2.80;;
68680;SDS011;55836;49.858;6.756;2024-01-06T08:43:29;2.37;;;2.10;;
68680;SDS011;55836;49.858;6.756;2024-01-06T08:45:55;1.80;;;1.63;;
68680;SDS011;55836;49.858;6.756;2024-01-06T08:48:21;2.63;;;1.90;;
68680;SDS011;55836;49.858;6.756;2024-01-06T08:50:47;2.40;;;1.87;;
68680;SDS011;55836;49.858;6.756;2024-01-06T08:53:13;3.20;;;2.50;;
68680;SDS011;55836;49.858;6.756;2024-01-06T08:55:40;2.73;;;2.30;;
68680;SDS011;55836;49.858;6.756;2024-01-06T08:58:06;2.77;;;2.43;;
68680;SDS011;55836;49.858;6.756;2024-01-06T09:00:32;4.87;;;2.57;;
68680;SDS011;55836;49.858;6.756;2024-01-06T09:02:58;4.37;;;3.00;;
68680;SDS011;55836;49.858;6.756;2024-01-06T09:05:25;6.47;;;3.80;;
68680;SDS011;55836;49.858;6.756;2024-01-06T09:07:51;8.13;;;4.97;;
68680;SDS011;55836;49.858;6.756;2024-01-06T09:10:17;6.37;;;4.03;;
68680;SDS011;55836;49.858;6.756;2024-01-06T09:12:44;4.20;;;2.20;;
68680;SDS011;55836;49.858;6.756;2024-01-06T09:15:10;2.13;;;1.70;;
68680;SDS011;55836;49.858;6.756;2024-01-06T09:17:36;1.90;;;1.70;;
68680;SDS011;55836;49.858;6.756;2024-01-06T09:20:02;1.67;;;1.57;;
68680;SDS011;55836;49.858;6.756;2024-01-06T09:22:28;1.77;;;1.57;;
68680;SDS011;55836;49.858;6.756;2024-01-06T09:24:54;1.73;;;1.63;;
68680;SDS011;55836;49.858;6.756;2024-01-06T09:27:20;1.50;;;1.33;;
68680;SDS011;55836;49.858;6.756;2024-01-06T09:29:46;1.70;;;1.57;;
68680;SDS011;55836;49.858;6.756;2024-01-06T09:32:12;2.03;;;1.70;;
68680;SDS011;55836;49.858;6.756;2024-01-06T09:34:38;2.00;;;1.80;;
68680;SDS011;55836;49.858;6.756;2024-01-06T09:37:04;9.30;;;4.63;;
68680;SDS011;55836;49.858;6.756;2024-01-06T09:39:30;9.93;;;4.83;;
68680;SDS011;55836;49.858;6.756;2024-01-06T09:41:56;7.87;;;5.40;;
68680;SDS011;55836;49.858;6.756;2024-01-06T09:44:23;2.40;;;1.83;;
68680;SDS011;55836;49.858;6.756;2024-01-06T09:46:49;1.90;;;1.63;;
68680;SDS011;55836;49.858;6.756;2024-01-06T09:49:19;1.87;;;1.77;;
68680;SDS011;55836;49.858;6.756;2024-01-06T09:51:47;2.03;;;1.50;;
68680;SDS011;55836;49.858;6.756;2024-01-06T09:54:16;3.37;;;3.07;;
68680;SDS011;55836;49.858;6.756;2024-01-06T09:56:47;3.70;;;2.80;;
68680;SDS011;55836;49.858;6.756;2024-01-06T09:59:14;1.60;;;1.50;;
68680;SDS011;55836;49.858;6.756;2024-01-06T10:01:41;1.77;;;1.67;;
68680;SDS011;55836;49.858;6.756;2024-01-06T10:04:07;1.77;;;1.40;;
68680;SDS011;55836;49.858;6.756;2024-01-06T10:06:33;1.77;;;1.50;;
68680;SDS011;55836;49.858;6.756;2024-01-06T10:08:59;1.57;;;1.40;;
68680;SDS011;55836;49.858;6.756;2024-01-06T10:11:25;1.53;;;1.43;;
68680;SDS011;55836;49.858;6.756;2024-01-06T10:13:51;1.47;;;1.37;;
68680;SDS011;55836;49.858;6.756;2024-01-06T10:16:19;1.83;;;1.30;;
68680;SDS011;55836;49.858;6.756;2024-01-06T10:18:46;1.70;;;1.30;;
68680;SDS011;55836;49.858;6.756;2024-01-06T10:21:12;1.30;;;1.20;;
68680;SDS011;55836;49.858;6.756;2024-01-06T10:23:42;0.93;;;0.93;;
68680;SDS011;55836;49.858;6.756;2024-01-06T10:26:12;1.33;;;1.23;;
68680;SDS011;55836;49.858;6.756;2024-01-06T10:28:38;1.37;;;1.27;;
68680;SDS011;55836;49.858;6.756;2024-01-06T10:31:04;1.40;;;1.30;;
68680;SDS011;55836;49.858;6.756;2024-01-06T10:33:30;1.40;;;1.30;;
68680;SDS011;55836;49.858;6.756;2024-01-06T10:35:58;1.30;;;1.20;;
68680;SDS011;55836;49.858;6.756;2024-01-06T10:38:29;2.37;;;1.20;;
68680;SDS011;55836;49.858;6.756;2024-01-06T10:41:04;1.40;;;1.30;;
68680;SDS011;55836;49.858;6.756;2024-01-06T10:43:34;1.20;;;1.10;;
68680;SDS011;55836;49.858;6.756;2024-01-06T10:46:02;2.33;;;1.77;;
68680;SDS011;55836;49.858;6.756;2024-01-06T10:48:32;2.93;;;1.63;;
68680;SDS011;55836;49.858;6.756;2024-01-06T10:50:58;6.17;;;2.33;;
68680;SDS011;55836;49.858;6.756;2024-01-06T10:53:26;9.40;;;3.10;;
68680;SDS011;55836;49.858;6.756;2024-01-06T10:55:52;5.17;;;2.13;;
68680;SDS011;55836;49.858;6.756;2024-01-06T10:58:18;5.80;;;3.13;;
68680;SDS011;55836;49.858;6.756;2024-01-06T11:00:45;12.93;;;6.13;;
68680;SDS011;55836;49.858;6.756;2024-01-06T11:03:11;3.23;;;2.27;;
68680;SDS011;55836;49.858;6.756;2024-01-06T11:05:38;6.77;;;3.93;;
68680;SDS011;55836;49.858;6.756;2024-01-06T11:08:05;6.87;;;3.13;;
68680;SDS011;55836;49.858;6.756;2024-01-06T11:10:31;2.70;;;1.80;;
68680;SDS011;55836;49.858;6.756;2024-01-06T11:13:10;1.33;;;1.10;;
68680;SDS011;55836;49.858;6.756;2024-01-06T11:15:44;1.67;;;1.40;;
68680;SDS011;55836;49.858;6.756;2024-01-06T11:18:29;2.30;;;2.10;;
68680;SDS011;55836;49.858;6.756;2024-01-06T11:21:13;2.67;;;2.30;;
68680;SDS011;55836;49.858;6.756;2024-01-06T11:23:42;9.00;;;6.23;;
68680;SDS011;55836;49.858;6.756;2024-01-06T11:26:08;4.20;;;3.63;;
68680;SDS011;55836;49.858;6.756;2024-01-06T11:28:47;3.30;;;2.37;;
68680;SDS011;55836;49.858;6.756;2024-01-06T11:31:13;1.53;;;1.30;;
68680;SDS011;55836;49.858;6.756;2024-01-06T11:33:43;1.77;;;1.57;;
68680;SDS011;55836;49.858;6.756;2024-01-06T11:36:09;1.30;;;1.20;;
68680;SDS011;55836;49.858;6.756;2024-01-06T11:38:38;1.17;;;1.13;;
68680;SDS011;55836;49.858;6.756;2024-01-06T11:41:06;1.60;;;1.50;;
68680;SDS011;55836;49.858;6.756;2024-01-06T11:43:33;2.33;;;1.87;;
68680;SDS011;55836;49.858;6.756;2024-01-06T11:46:01;2.30;;;2.00;;
68680;SDS011;55836;49.858;6.756;2024-01-06T11:48:29;5.20;;;2.63;;
68680;SDS011;55836;49.858;6.756;2024-01-06T11:50:56;2.90;;;2.30;;
68680;SDS011;55836;49.858;6.756;2024-01-06T11:53:23;2.60;;;2.03;;
68680;SDS011;55836;49.858;6.756;2024-01-06T11:55:52;3.77;;;2.90;;
68680;SDS011;55836;49.858;6.756;2024-01-06T11:58:18;2.53;;;2.17;;
68680;SDS011;55836;49.858;6.756;2024-01-06T12:00:45;3.70;;;2.93;;
68680;SDS011;55836;49.858;6.756;2024-01-06T12:03:21;4.00;;;2.63;;
68680;SDS011;55836;49.858;6.756;2024-01-06T12:06:09;3.83;;;2.87;;
68680;SDS011;55836;49.858;6.756;2024-01-06T12:08:34;5.77;;;3.80;;
68680;SDS011;55836;49.858;6.756;2024-01-06T12:11:04;4.40;;;3.20;;
68680;SDS011;55836;49.858;6.756;2024-01-06T12:13:30;4.87;;;3.70;;
68680;SDS011;55836;49.858;6.756;2024-01-06T12:15:56;4.93;;;3.57;;
68680;SDS011;55836;49.858;6.756;2024-01-06T12:18:22;6.07;;;4.33;;
68680;SDS011;55836;49.858;6.756;2024-01-06T12:20:49;5.13;;;3.73;;
68680;SDS011;55836;49.858;6.756;2024-01-06T12:23:28;5.50;;;3.70;;
68680;SDS011;55836;49.858;6.756;2024-01-06T12:25:54;5.63;;;4.37;;
68680;SDS011;55836;49.858;6.756;2024-01-06T12:28:20;4.47;;;3.70;;
68680;SDS011;55836;49.858;6.756;2024-01-06T12:30:46;4.73;;;3.13;;
68680;SDS011;55836;49.858;6.756;2024-01-06T12:33:13;4.83;;;3.13;;
68680;SDS011;55836;49.858;6.756;2024-01-06T12:35:39;5.77;;;3.33;;
68680;SDS011;55836;49.858;6.756;2024-01-06T12:38:06;5.07;;;2.83;;
68680;SDS011;55836;49.858;6.756;2024-01-06T12:40:35;5.27;;;3.43;;
68680;SDS011;55836;49.858;6.756;2024-01-06T12:43:01;3.90;;;3.30;;
68680;SDS011;55836;49.858;6.756;2024-01-06T12:45:27;6.07;;;3.47;;
68680;SDS011;55836;49.858;6.756;2024-01-06T12:47:54;4.33;;;3.43;;
68680;SDS011;55836;49.858;6.756;2024-01-06T12:50:20;3.50;;;2.90;;
68680;SDS011;55836;49.858;6.756;2024-01-06T12:52:46;4.77;;;3.30;;
68680;SDS011;55836;49.858;6.756;2024-01-06T12:55:12;4.63;;;3.50;;
68680;SDS011;55836;49.858;6.756;2024-01-06T12:57:38;3.33;;;3.00;;
68680;SDS011;55836;49.858;6.756;2024-01-06T13:00:04;3.90;;;3.07;;
68680;SDS011;55836;49.858;6.756;2024-01-06T13:02:32;4.20;;;3.13;;
68680;SDS011;55836;49.858;6.756;2024-01-06T13:04:58;3.10;;;2.60;;
68680;SDS011;55836;49.858;6.756;2024-01-06T13:07:24;3.70;;;3.00;;
68680;SDS011;55836;49.858;6.756;2024-01-06T13:09:50;5.10;;;3.43;;
68680;SDS011;55836;49.858;6.756;2024-01-06T13:12:17;4.57;;;3.23;;
68680;SDS011;55836;49.858;6.756;2024-01-06T13:14:43;4.83;;;2.83;;
68680;SDS011;55836;49.858;6.756;2024-01-06T13:17:12;3.83;;;2.97;;
68680;SDS011;55836;49.858;6.756;2024-01-06T13:19:39;4.30;;;2.97;;
68680;SDS011;55836;49.858;6.756;2024-01-06T13:22:05;2.60;;;2.40;;
68680;SDS011;55836;49.858;6.756;2024-01-06T13:24:31;4.07;;;2.83;;
68680;SDS011;55836;49.858;6.756;2024-01-06T13:26:57;4.40;;;3.13;;
68680;SDS011;55836;49.858;6.756;2024-01-06T13:29:28;3.23;;;2.70;;
68680;SDS011;55836;49.858;6.756;2024-01-06T13:31:54;3.87;;;3.00;;
68680;SDS011;55836;49.858;6.756;2024-01-06T13:34:21;5.47;;;2.60;;
68680;SDS011;55836;49.858;6.756;2024-01-06T13:36:47;3.07;;;2.77;;
68680;SDS011;55836;49.858;6.756;2024-01-06T13:39:12;3.83;;;3.23;;
68680;SDS011;55836;49.858;6.756;2024-01-06T13:41:45;5.37;;;3.73;;
68680;SDS011;55836;49.858;6.756;2024-01-06T13:44:12;4.57;;;3.87;;
68680;SDS011;55836;49.858;6.756;2024-01-06T13:46:38;4.53;;;3.57;;
68680;SDS011;55836;49.858;6.756;2024-01-06T13:49:08;5.73;;;4.17;;
68680;SDS011;55836;49.858;6.756;2024-01-06T13:51:34;6.10;;;4.50;;
68680;SDS011;55836;49.858;6.756;2024-01-06T13:54:00;5.90;;;4.07;;
68680;SDS011;55836;49.858;6.756;2024-01-06T13:56:27;6.20;;;4.13;;
68680;SDS011;55836;49.858;6.756;2024-01-06T13:58:53;5.40;;;4.03;;
68680;SDS011;55836;49.858;6.756;2024-01-06T14:01:18;5.90;;;4.00;;
68680;SDS011;55836;49.858;6.756;2024-01-06T14:03:45;5.23;;;3.40;;
68680;SDS011;55836;49.858;6.756;2024-01-06T14:06:11;6.83;;;3.70;;
68680;SDS011;55836;49.858;6.756;2024-01-06T14:08:37;3.83;;;3.00;;
68680;SDS011;55836;49.858;6.756;2024-01-06T14:11:03;3.00;;;2.70;;
68680;SDS011;55836;49.858;6.756;2024-01-06T14:13:30;3.80;;;3.00;;
68680;SDS011;55836;49.858;6.756;2024-01-06T14:15:56;5.40;;;2.83;;
68680;SDS011;55836;49.858;6.756;2024-01-06T14:18:22;3.53;;;2.77;;
68680;SDS011;55836;49.858;6.756;2024-01-06T14:20:48;4.87;;;3.13;;
68680;SDS011;55836;49.858;6.756;2024-01-06T14:23:14;4.00;;;2.60;;
68680;SDS011;55836;49.858;6.756;2024-01-06T14:25:40;3.93;;;3.07;;
68680;SDS011;55836;49.858;6.756;2024-01-06T14:28:06;3.30;;;2.60;;
68680;SDS011;55836;49.858;6.756;2024-01-06T14:30:32;3.17;;;2.37;;
68680;SDS011;55836;49.858;6.756;2024-01-06T14:32:58;4.00;;;3.03;;
68680;SDS011;55836;49.858;6.756;2024-01-06T14:35:24;3.70;;;2.80;;
68680;SDS011;55836;49.858;6.756;2024-01-06T14:37:50;4.00;;;3.13;;
68680;SDS011;55836;49.858;6.756;2024-01-06T14:40:17;3.90;;;2.80;;
68680;SDS011;55836;49.858;6.756;2024-01-06T14:42:43;4.10;;;3.00;;
68680;SDS011;55836;49.858;6.756;2024-01-06T14:45:10;4.77;;;3.03;;